Data for 04/09/2015

Time Sea-Level Adjusted Pressure Absolute Pressure Temperature Relative Humidity Dew Point   
(mb) (inHg) (mb) (inHg) (C) (F) (%) (C) (F)
00:05 1018 30.06 847 25.01 2.4 36.3 73 -2 28.4
00:10 1018 30.06 847 25.01 2.3 36.1 73 -2 28.4
00:15 1018 30.06 847 25.01 2.2 35.9 74 -2 28.4
00:20 1018 30.06 847 25.01 1.8 35.3 74 -2.3 27.8
00:25 1018 30.06 847 25.01 1.6 34.8 74 -2.5 27.5
00:30 1018 30.06 847 25.01 1.5 34.7 74 -2.5 27.4
00:35 1018 30.06 847 25.01 1.5 34.7 75 -2.5 27.4
00:40 1018 30.06 847 25.01 1.8 35.2 73 -2.5 27.4
00:45 1018 30.06 848 25.04 2 35.5 73 -2.4 27.7
00:50 1018 30.06 848 25.04 1.8 35.2 74 -2.5 27.6
00:55 1018 30.06 848 25.04 1.5 34.6 76 -2.4 27.8
01:00 1018 30.06 848 25.04 1.7 35 74 -2.4 27.7
01:05 1018 30.06 848 25.04 1.9 35.5 74 -2.2 28.1
01:10 1018 30.06 848 25.04 2 35.6 75 -2 28.5
01:15 1018 30.06 847 25.01 2 35.6 77 -1.6 29.1
01:20 1018 30.06 847 25.01 1.9 35.5 78 -1.5 29.3
01:25 1018 30.06 848 25.04 1.9 35.4 78 -1.5 29.3
01:30 1018 30.06 848 25.04 1.9 35.4 79 -1.4 29.4
01:35 1018 30.06 848 25.04 1.7 35.1 80 -1.4 29.4
01:40 1018 30.06 848 25.04 1.6 34.9 80 -1.4 29.5
01:45 1018 30.06 848 25.04 1.4 34.5 82 -1.4 29.5
01:50 1018 30.06 848 25.04 1.2 34.2 82 -1.5 29.4
01:55 1018 30.06 848 25.04 1.1 34 84 -1.4 29.5
02:00 1018 30.06 848 25.04 1 33.9 84 -1.4 29.5
02:05 1018 30.06 848 25.04 1.1 34 83 -1.4 29.5
02:10 1019 30.09 848 25.04 1.1 33.9 84 -1.4 29.5
02:15 1018 30.06 848 25.04 1 33.8 84 -1.5 29.3
02:20 1018 30.06 848 25.04 1 33.7 83 -1.5 29.2
02:25 1019 30.09 848 25.04 1 33.7 83 -1.7 29
02:30 1019 30.09 848 25.04 1 33.8 82 -1.7 28.9
02:35 1019 30.09 848 25.04 1 33.8 82 -1.7 28.9
02:40 1019 30.09 848 25.04 1 33.7 82 -1.8 28.8
02:45 1019 30.09 848 25.04 0.9 33.6 82 -1.8 28.7
02:50 1019 30.09 848 25.04 0.8 33.4 83 -1.8 28.7
02:55 1019 30.09 848 25.04 0.7 33.2 83 -1.8 28.7
03:00 1019 30.09 848 25.04 0.6 33.1 83 -2 28.4
03:05 1019 30.09 848 25.04 0.3 32.6 84 -2 28.4
03:10 1019 30.09 848 25.04 0.1 32.2 84 -2.3 27.9
03:15 1019 30.09 848 25.04 -0 31.9 85 -2.3 27.9
03:20 1019 30.09 848 25.04 0.2 32.4 84 -2.2 28.1
03:25 1019 30.09 848 25.04 0.3 32.6 84 -2.1 28.2
03:30 1019 30.09 848 25.04 0.4 32.7 83 -2.2 28
03:35 1019 30.09 848 25.04 0.4 32.6 82 -2.4 27.7
03:40 1019 30.09 848 25.04 0.3 32.5 82 -2.4 27.6
03:45 1019 30.09 848 25.04 0.2 32.4 82 -2.5 27.4
03:50 1019 30.09 848 25.04 0.1 32.1 81 -2.8 27
03:55 1019 30.09 848 25.04 0.1 32.1 80 -3 26.6
04:00 1019 30.09 848 25.04 0.1 32.3 80 -3 26.7
04:05 1019 30.09 848 25.04 0.1 32.2 80 -2.9 26.8
04:10 1019 30.09 848 25.04 -0 32 81 -2.9 26.7
04:15 1019 30.09 848 25.04 -0.1 31.8 79 -3.3 26.1
04:20 1019 30.09 848 25.04 -0.1 31.8 79 -3.3 26.1
04:25 1019 30.09 848 25.04 -0.2 31.6 79 -3.4 25.8
04:30 1019 30.09 848 25.04 -0.3 31.5 79 -3.5 25.8
04:35 1019 30.09 848 25.04 -0.4 31.4 80 -3.4 25.9
04:40 1019 30.09 848 25.04 -0.4 31.3 83 -2.9 26.8
04:45 1019 30.09 849 25.07 -0.5 31.1 85 -2.7 27.1
04:50 1019 30.09 849 25.07 -0.6 31 85 -2.8 27
04:55 1019 30.09 849 25.07 -0.6 30.9 85 -2.8 27
05:00 1019 30.09 849 25.07 -0.5 31 84 -2.9 26.8
05:05 1020 30.12 849 25.07 -0.5 31.1 84 -2.9 26.8
05:10 1020 30.12 849 25.07 -0.4 31.3 83 -2.9 26.8
05:15 1020 30.12 849 25.07 -0.4 31.3 84 -2.8 27
05:20 1020 30.12 849 25.07 -0.5 31.2 84 -2.8 27
05:25 1020 30.12 849 25.07 -0.5 31.1 84 -2.8 26.9
05:30 1020 30.12 849 25.07 -0.6 30.9 84 -3 26.7
05:35 1020 30.12 849 25.07 -0.6 31 83 -3.2 26.3
05:40 1020 30.12 849 25.07 -0.3 31.5 80 -3.3 26.1
05:45 1020 30.12 849 25.07 -0.5 31.1 81 -3.4 25.9
05:50 1020 30.12 849 25.07 -0.8 30.6 81 -3.7 25.3
05:55 1020 30.12 849 25.07 -1.1 30.1 82 -3.8 25.1
06:00 1020 30.12 849 25.07 -1 30.2 82 -3.7 25.4
06:05 1020 30.12 849 25.07 -0.9 30.3 82 -3.7 25.3
06:10 1020 30.12 849 25.07 -0.9 30.4 81 -3.8 25.2
06:15 1020 30.12 849 25.07 -0.8 30.6 80 -3.8 25.2
06:20 1020 30.12 849 25.07 -0.7 30.7 80 -3.8 25.2
06:25 1020 30.12 849 25.07 -0.6 30.9 80 -3.7 25.3
06:30 1020 30.12 849 25.07 -0.3 31.5 78 -3.6 25.5
06:35 1020 30.12 849 25.07 -0 31.9 77 -3.5 25.6
06:40 1020 30.12 849 25.07 0.2 32.3 76 -3.6 25.5
06:45 1020 30.12 849 25.07 0.2 32.3 76 -3.6 25.5
06:50 1020 30.12 849 25.07 -0 31.9 76 -3.8 25.1
06:55 1020 30.12 849 25.07 0.2 32.3 74 -4 24.8
07:00 1020 30.12 849 25.07 0.4 32.8 73 -3.9 24.9
07:05 1020 30.12 849 25.07 0.9 33.6 71 -3.7 25.3
07:10 1020 30.12 849 25.07 1.2 34.2 71 -3.5 25.8
07:15 1020 30.12 850 25.1 1.5 34.7 71 -3.2 26.2
07:20 1020 30.12 850 25.1 1.4 34.5 71 -3.2 26.2
07:25 1020 30.12 850 25.1 1.4 34.5 71 -3.3 26
07:30 1020 30.12 850 25.1 2 35.6 68 -3.3 26.1
07:35 1020 30.12 850 25.1 2.6 36.6 66 -3.1 26.4
07:40 1020 30.12 850 25.1 2.7 36.9 66 -2.9 26.7
07:45 1020 30.12 849 25.07 2.6 36.6 67 -2.9 26.8
07:50 1020 30.12 849 25.07 2.9 37.2 66 -2.8 26.9
07:55 1020 30.12 849 25.07 3.6 38.5 63 -2.7 27.1
08:00 1020 30.12 849 25.07 3.5 38.4 61 -3.3 26.1
08:05 1020 30.12 849 25.07 4 39.2 60 -3.1 26.4
08:10 1020 30.12 849 25.07 4.6 40.3 56 -3.3 26.1
08:15 1020 30.12 849 25.07 5 40.9 55 -3.3 26.1
08:20 1020 30.12 849 25.07 4.9 40.9 55 -3.3 26
08:25 1020 30.12 850 25.1 4.6 40.2 58 -3 26.6
08:30 1020 30.12 850 25.1 4.5 40.1 56 -3.6 25.5
08:35 1020 30.12 849 25.07 4.8 40.7 56 -3.3 26.1
08:40 1020 30.12 849 25.07 5.7 42.2 51 -3.6 25.6
08:45 1020 30.12 849 25.07 6.2 43.2 52 -3 26.6
08:50 1020 30.12 850 25.1 5.6 42.1 52 -3.5 25.7
08:55 1020 30.12 850 25.1 6 42.9 51 -3.4 25.8
09:00 1020 30.12 850 25.1 6.7 44.1 49 -3.2 26.2
09:05 1020 30.12 850 25.1 7.5 45.4 47 -3.2 26.3
09:10 1020 30.12 850 25.1 6.8 44.3 51 -2.6 27.4
09:15 1020 30.12 850 25.1 6.9 44.4 48 -3.4 25.9
09:20 1020 30.12 850 25.1 7.6 45.8 46 -3.1 26.3
09:25 1020 30.12 850 25.1 7.6 45.7 47 -3 26.6
09:30 1020 30.12 850 25.1 6.7 44.1 49 -3.3 26.1
09:35 1020 30.12 850 25.1 7.9 46.2 45 -3.2 26.2
09:40 1020 30.12 849 25.07 8.4 47 46 -2.6 27.3
09:45 1020 30.12 849 25.07 7.8 46 49 -2.4 27.7
09:50 1020 30.12 849 25.07 7.8 46 48 -2.7 27.2
09:55 1020 30.12 849 25.07 7 44.6 51 -2.3 27.8
10:00 1020 30.12 849 25.07 6.8 44.2 50 -3 26.7
10:05 1020 30.12 849 25.07 7.9 46.2 46 -2.9 26.7
10:10 1020 30.12 849 25.07 9.1 48.4 45 -2.2 28
10:15 1020 30.12 849 25.07 9.3 48.7 45 -1.9 28.5
10:20 1020 30.12 849 25.07 9.3 48.7 43 -2.5 27.5
10:25 1020 30.12 849 25.07 8.8 47.8 46 -2.3 27.9
10:30 1020 30.12 849 25.07 9 48.2 44 -2.6 27.4
10:35 1020 30.12 849 25.07 8.5 47.2 50 -1.5 29.3
10:40 1020 30.12 849 25.07 8 46.4 48 -2.2 28
10:45 1020 30.12 849 25.07 8.1 46.6 50 -1.6 29.1
10:50 1020 30.12 849 25.07 7.8 46.1 49 -2.3 27.8
10:55 1020 30.12 849 25.07 8.4 47.1 47 -2.3 27.9
11:00 1020 30.12 849 25.07 8.4 47.2 46 -2.4 27.8
11:05 1020 30.12 849 25.07 8.7 47.7 46 -2.4 27.8
11:10 1020 30.12 849 25.07 8.9 48.1 47 -1.6 29.1
11:15 1020 30.12 849 25.07 9 48.3 42 -3 26.5
11:20 1020 30.12 849 25.07 8.5 47.4 45 -2.7 27.2
11:25 1020 30.12 849 25.07 8 46.5 46 -3 26.6
11:30 1020 30.12 849 25.07 9.5 49.1 37 -4.6 23.7
11:35 1020 30.12 849 25.07 9.2 48.5 38 -4.2 24.4
11:40 1020 30.12 849 25.07 9.5 49.2 39 -3.7 25.4
11:45 1020 30.12 849 25.07 9.9 49.8 37 -4.1 24.6
11:50 1019 30.09 849 25.07 9.8 49.6 38 -3.7 25.4
11:55 1019 30.09 849 25.07 9.8 49.6 38 -3.8 25.2
12:00 1019 30.09 849 25.07 9.7 49.5 37 -4.2 24.4
12:05 1019 30.09 849 25.07 10.4 50.7 35 -4.5 24
12:10 1019 30.09 848 25.04 10.9 51.6 35 -3.9 25
12:15 1019 30.09 848 25.04 10.7 51.3 34 -4.3 24.3
12:20 1019 30.09 848 25.04 10.7 51.3 34 -4.6 23.7
12:25 1019 30.09 848 25.04 11.1 51.9 32 -5.1 22.8
12:30 1019 30.09 848 25.04 11.7 53.1 30 -5.2 22.6
12:35 1019 30.09 848 25.04 10.5 51 30 -6.1 21.1
12:40 1019 30.09 848 25.04 11.5 52.6 29 -6 21.2
12:45 1019 30.09 848 25.04 12.2 53.9 27 -6.3 20.6
12:50 1019 30.09 848 25.04 12.3 54.1 27 -6 21.2
12:55 1019 30.09 848 25.04 12.1 53.9 25 -7.2 19.1
13:00 1019 30.09 848 25.04 11.8 53.2 27 -6.3 20.6
13:05 1019 30.09 848 25.04 12 53.6 27 -6.4 20.5
13:10 1019 30.09 848 25.04 12.3 54.1 26 -6.8 19.7
13:15 1019 30.09 848 25.04 12.5 54.4 24 -7.3 18.8
13:20 1019 30.09 848 25.04 10.8 51.4 27 -7.6 18.3
13:25 1019 30.09 848 25.04 11.9 53.4 24 -7.9 17.8
13:30 1019 30.09 848 25.04 12.9 55.3 23 -7.7 18.2
13:35 1019 30.09 848 25.04 12.4 54.3 24 -7.4 18.7
13:40 1019 30.09 848 25.04 12.1 53.9 25 -7.3 18.9
13:45 1019 30.09 848 25.04 12.4 54.3 25 -7.1 19.3
13:50 1019 30.09 848 25.04 13.1 55.6 24 -6.8 19.8
13:55 1018 30.06 848 25.04 13.3 55.9 24 -6.6 20.2
14:00 1018 30.06 848 25.04 13.2 55.8 24 -6.6 20.1
14:05 1018 30.06 848 25.04 12.1 53.8 27 -6.4 20.5
14:10 1018 30.06 848 25.04 11 51.7 30 -6 21.2
14:15 1018 30.06 848 25.04 10 50 30 -6.7 20
14:20 1018 30.06 848 25.04 10 50.1 30 -6.8 19.7
14:25 1018 30.06 847 25.01 9.9 49.9 32 -6.1 21
14:30 1018 30.06 847 25.01 10.2 50.3 33 -5.5 22.1
14:35 1018 30.06 847 25.01 10.1 50.2 32 -6 21.3
14:40 1018 30.06 847 25.01 10.5 50.9 29 -6.6 20.1
14:45 1018 30.06 847 25.01 11 51.8 28 -6.8 19.7
14:50 1018 30.06 847 25.01 11.1 52 30 -5.6 21.9
14:55 1018 30.06 847 25.01 11.4 52.6 30 -5.7 21.7
15:00 1018 30.06 847 25.01 10.4 50.8 33 -5.3 22.5
15:05 1018 30.06 847 25.01 10.5 50.9 33 -4.9 23.1
15:10 1018 30.06 847 25.01 10.2 50.4 34 -5.1 22.8
15:15 1018 30.06 847 25.01 10.2 50.4 34 -4.8 23.3
15:20 1018 30.06 847 25.01 9.8 49.7 36 -4.7 23.6
15:25 1018 30.06 847 25.01 9.4 48.9 39 -3.9 25
15:30 1018 30.06 847 25.01 9.2 48.6 44 -2.5 27.6
15:35 1018 30.06 847 25.01 8.8 47.9 44 -2.6 27.3
15:40 1018 30.06 847 25.01 8.7 47.7 41 -4 24.9
15:45 1018 30.06 847 25.01 8.9 48.1 35 -5.6 21.9
15:50 1018 30.06 847 25.01 9 48.2 37 -4.8 23.4
15:55 1018 30.06 847 25.01 8.6 47.4 55 0.1 32.3
16:00 1018 30.06 847 25.01 7.7 45.8 56 -0.4 31.2
16:05 1018 30.06 847 25.01 7.7 45.9 56 -0.5 31.1
16:10 1018 30.06 847 25.01 7.9 46.2 56 -0.3 31.4
16:15 1018 30.06 847 25.01 7.7 45.9 57 -0.1 31.8
16:20 1018 30.06 847 25.01 7.3 45.1 59 -0.3 31.5
16:25 1018 30.06 847 25.01 7.2 44.9 59 -0.4 31.3
16:30 1018 30.06 847 25.01 7.1 44.8 60 -0.2 31.6
16:35 1018 30.06 847 25.01 6.8 44.3 60 -0.3 31.5
16:40 1018 30.06 847 25.01 6.8 44.2 58 -0.8 30.6
16:45 1018 30.06 848 25.04 6.7 44 60 -0.5 31
16:50 1018 30.06 848 25.04 6.8 44.3 59 -0.6 31
16:55 1018 30.06 847 25.01 7 44.7 58 -0.6 30.8
17:00 1018 30.06 847 25.01 7.1 44.8 58 -0.6 30.8
17:05 1018 30.06 847 25.01 7 44.6 58 -0.6 30.9
17:10 1018 30.06 848 25.04 6.9 44.3 58 -0.7 30.7
17:15 1018 30.06 848 25.04 6.8 44.3 59 -0.7 30.7
17:20 1018 30.06 848 25.04 6.9 44.5 58 -0.7 30.8
17:25 1018 30.06 848 25.04 7.2 44.9 57 -0.7 30.7
17:30 1019 30.09 848 25.04 7.2 45 56 -1.1 30.1
17:35 1019 30.09 848 25.04 7.2 45 56 -0.8 30.5
17:40 1019 30.09 848 25.04 7.2 44.9 57 -0.8 30.5
17:45 1019 30.09 848 25.04 7.3 45.1 56 -0.8 30.5
17:50 1019 30.09 848 25.04 7.3 45.2 58 -0.4 31.2
17:55 1019 30.09 848 25.04 7.2 45 57 -0.8 30.6
18:00 1019 30.09 848 25.04 7 44.5 55 -1.5 29.4
18:05 1019 30.09 848 25.04 6.9 44.3 55 -1.4 29.4
18:10 1019 30.09 848 25.04 7 44.6 55 -1.4 29.6
18:15 1019 30.09 848 25.04 7.2 45 53 -1.7 28.9
18:20 1019 30.09 848 25.04 7.3 45.1 53 -1.8 28.8
18:25 1019 30.09 848 25.04 7.2 44.9 57 -0.7 30.8
18:30 1019 30.09 848 25.04 6.9 44.4 60 -0.2 31.6
18:35 1019 30.09 848 25.04 6.6 44 62 -0.1 31.9
18:40 1019 30.09 848 25.04 6.3 43.4 64 -0 31.9
18:45 1019 30.09 848 25.04 6 42.8 66 0.2 32.4
18:50 1019 30.09 848 25.04 5.7 42.3 68 0.2 32.4
18:55 1019 30.09 848 25.04 5.5 42 67 -0 31.9
19:00 1019 30.09 848 25.04 5.4 41.7 68 0 32
19:05 1019 30.09 848 25.04 5.3 41.5 69 -0 31.9
19:10 1019 30.09 848 25.04 5.1 41.2 69 -0 31.9
19:15 1019 30.09 848 25.04 5 40.9 71 0.1 32.2
19:20 1019 30.09 848 25.04 4.9 40.8 71 0.1 32.2
19:25 1019 30.09 848 25.04 4.8 40.6 72 0.2 32.3
19:30 1019 30.09 848 25.04 4.7 40.4 73 0.3 32.5
19:35 1019 30.09 848 25.04 4.5 40.1 74 0.3 32.5
19:40 1019 30.09 848 25.04 4.4 39.9 74 0.2 32.3
19:45 1019 30.09 848 25.04 4.3 39.8 75 0.2 32.4
19:50 1019 30.09 848 25.04 4.3 39.7 74 0.1 32.2
19:55 1019 30.09 848 25.04 4.3 39.7 74 0.1 32.2
20:00 1019 30.09 848 25.04 4.3 39.8 75 0.2 32.4
20:05 1019 30.09 848 25.04 4.3 39.7 75 0.2 32.4
20:10 1019 30.09 848 25.04 4.2 39.6 75 0.3 32.5
20:15 1019 30.09 848 25.04 4.1 39.5 76 0.3 32.5
20:20 1019 30.09 848 25.04 4.1 39.3 76 0.2 32.3
20:25 1019 30.09 848 25.04 4.1 39.3 75 0.1 32.2
20:30 1019 30.09 848 25.04 4 39.2 75 0 32.1
20:35 1019 30.09 848 25.04 3.8 38.9 77 0.2 32.4
20:40 1019 30.09 848 25.04 3.6 38.4 78 0 32
20:45 1019 30.09 848 25.04 3.6 38.4 77 -0.1 31.8
20:50 1019 30.09 848 25.04 3.7 38.6 76 -0.1 31.7
20:55 1019 30.09 848 25.04 3.8 38.8 75 -0.2 31.7
21:00 1019 30.09 848 25.04 3.9 39 75 -0.2 31.7
21:05 1019 30.09 848 25.04 3.7 38.7 76 -0.1 31.9
21:10 1019 30.09 848 25.04 3.6 38.5 77 -0.1 31.8
21:15 1019 30.09 848 25.04 3.5 38.4 77 -0.1 31.8
21:20 1019 30.09 848 25.04 3.4 38.2 78 -0.1 31.8
21:25 1019 30.09 848 25.04 3.4 38.1 77 -0.2 31.7
21:30 1019 30.09 848 25.04 3.4 38.2 77 -0.2 31.6
21:35 1019 30.09 848 25.04 3.4 38.1 77 -0.2 31.6
21:40 1019 30.09 848 25.04 3.2 37.8 78 -0.2 31.6
21:45 1019 30.09 848 25.04 3.1 37.6 79 -0.3 31.5
21:50 1019 30.09 848 25.04 2.9 37.1 79 -0.4 31.2
21:55 1019 30.09 848 25.04 2.7 36.8 78 -0.8 30.6
22:00 1019 30.09 848 25.04 2.5 36.5 78 -0.9 30.3
22:05 1019 30.09 848 25.04 2.6 36.7 77 -1.1 30
22:10 1019 30.09 848 25.04 2.8 37 77 -0.9 30.3
22:15 1018 30.06 848 25.04 2.7 36.9 77 -1 30.3
22:20 1018 30.06 848 25.04 2.5 36.5 77 -1.2 29.8
22:25 1018 30.06 848 25.04 2.4 36.4 77 -1.2 29.9
22:30 1018 30.06 848 25.04 2.5 36.4 77 -1.2 29.9
22:35 1018 30.06 848 25.04 2.3 36.2 77 -1.2 29.8
22:40 1018 30.06 847 25.01 2.2 35.9 77 -1.4 29.5
22:45 1018 30.06 847 25.01 2.1 35.7 78 -1.4 29.6
22:50 1018 30.06 848 25.04 2.1 35.8 77 -1.6 29.2
22:55 1018 30.06 848 25.04 2 35.6 77 -1.5 29.3
23:00 1018 30.06 848 25.04 1.9 35.4 77 -1.7 28.9
23:05 1018 30.06 848 25.04 1.8 35.2 77 -1.8 28.8
23:10 1018 30.06 848 25.04 1.9 35.4 76 -1.8 28.7
23:15 1018 30.06 848 25.04 2 35.5 76 -1.9 28.6
23:20 1018 30.06 848 25.04 2 35.7 76 -1.8 28.7
23:25 1018 30.06 848 25.04 2 35.5 76 -1.8 28.7
23:30 1018 30.06 848 25.04 1.8 35.2 77 -1.9 28.6
23:35 1018 30.06 848 25.04 1.6 35 77 -1.9 28.5
23:40 1018 30.06 848 25.04 1.6 34.9 78 -1.9 28.6
23:45 1018 30.06 848 25.04 1.7 35 78 -1.8 28.8
23:50 1018 30.06 848 25.04 1.7 35.1 78 -1.7 28.9
23:55 1018 30.06 848 25.04 1.7 35.1 78 -1.7 28.9
24:00 1018 30.06 848 25.04 1.6 34.9 77 -1.9 28.5